Time;durP1;ratioP1;P1;durP2;ratioP2;P2;SDS_P1;SDS_P2;PMS_P1;PMS_P2;Temp;Humidity;BMP_temperature;BMP_pressure;BME280_temperature;BME280_humidity;BME280_pressure;Samples;Min_cycle;Max_cycle;Signal;HPM_P1;HPM_P2
2022/08/25 00:00:41;;;;;;;24.88;21.60;;;;;;;;;;5093789;28;20448;-67
2022/08/25 00:03:08;;;;;;;25.05;22.45;;;;;;;;;;5093065;28;20044;-67
2022/08/25 00:05:34;;;;;;;25.42;22.60;;;;;;;;;;5093135;28;20093;-67
2022/08/25 00:08:00;;;;;;;24.02;21.48;;;;;;;;;;5075555;28;20127;-67
2022/08/25 00:10:27;;;;;;;23.02;20.73;;;;;;;;;;5092822;28;20072;-66
2022/08/25 00:12:53;;;;;;;24.55;22.05;;;;;;;;;;5093908;28;20040;-67
2022/08/25 00:15:21;;;;;;;25.08;22.48;;;;;;;;;;5093035;28;20083;-67
2022/08/25 00:17:47;;;;;;;24.17;21.85;;;;;;;;;;5075623;28;20591;-67
2022/08/25 00:20:14;;;;;;;23.67;21.35;;;;;;;;;;5058891;28;20073;-66
2022/08/25 00:22:40;;;;;;;24.05;21.60;;;;;;;;;;5092510;28;20044;-67
2022/08/25 00:25:07;;;;;;;22.80;20.40;;;;;;;;;;5075121;28;20493;-66
2022/08/25 00:27:33;;;;;;;24.92;21.80;;;;;;;;;;5093434;28;20035;-67
2022/08/25 00:29:59;;;;;;;24.92;22.00;;;;;;;;;;5074291;28;20032;-66
2022/08/25 00:32:25;;;;;;;22.98;20.58;;;;;;;;;;5075253;28;20055;-67
2022/08/25 00:34:52;;;;;;;24.60;20.38;;;;;;;;;;5093194;28;20070;-67
2022/08/25 00:37:18;;;;;;;23.30;21.00;;;;;;;;;;5074631;28;20097;-66
2022/08/25 00:39:45;;;;;;;21.77;19.17;;;;;;;;;;5074833;28;20078;-67
2022/08/25 00:42:11;;;;;;;23.17;20.52;;;;;;;;;;5075229;28;20050;-67
2022/08/25 00:44:37;;;;;;;21.58;19.25;;;;;;;;;;5092115;28;20119;-67
2022/08/25 00:47:04;;;;;;;21.20;18.95;;;;;;;;;;5092955;28;20074;-67
2022/08/25 00:49:33;;;;;;;22.15;19.83;;;;;;;;;;5074917;28;20079;-67
2022/08/25 00:52:07;;;;;;;20.50;18.08;;;;;;;;;;5074174;28;20075;-67
2022/08/25 00:54:45;;;;;;;19.80;17.70;;;;;;;;;;5075161;28;20132;-67
2022/08/25 00:57:13;;;;;;;19.83;17.80;;;;;;;;;;5093343;28;20494;-66
2022/08/25 00:59:39;;;;;;;21.27;18.90;;;;;;;;;;5073761;28;20047;-67
2022/08/25 01:02:07;;;;;;;21.52;19.17;;;;;;;;;;5074466;28;20500;-67
2022/08/25 01:04:33;;;;;;;20.42;18.30;;;;;;;;;;5073610;28;20126;-67
2022/08/25 01:07:00;;;;;;;21.77;19.55;;;;;;;;;;5092720;28;20449;-66
2022/08/25 01:09:26;;;;;;;18.50;15.85;;;;;;;;;;5074487;28;20060;-67
2022/08/25 01:11:52;;;;;;;18.70;16.80;;;;;;;;;;5073586;28;20040;-67
2022/08/25 01:14:19;;;;;;;18.75;15.93;;;;;;;;;;5092542;28;20549;-67
2022/08/25 01:16:46;;;;;;;19.90;16.52;;;;;;;;;;5091104;28;20044;-67
2022/08/25 01:19:13;;;;;;;17.15;15.35;;;;;;;;;;5074055;28;20047;-67
2022/08/25 01:21:40;;;;;;;19.00;15.32;;;;;;;;;;5074250;28;20055;-67
2022/08/25 01:24:06;;;;;;;19.95;17.88;;;;;;;;;;5074102;28;20051;-66
2022/08/25 01:26:33;;;;;;;19.35;16.50;;;;;;;;;;5091650;28;20047;-67
2022/08/25 01:31:46;;;;;;;18.50;16.33;;;;;;;;;;5092060;28;20082;-66
2022/08/25 01:34:13;;;;;;;22.13;16.52;;;;;;;;;;5091805;28;20040;-66
2022/08/25 01:36:39;;;;;;;19.50;17.35;;;;;;;;;;5092147;28;20043;-66
2022/08/25 01:39:06;;;;;;;18.52;15.50;;;;;;;;;;5074208;28;20101;-66
2022/08/25 01:41:51;;;;;;;17.25;15.50;;;;;;;;;;5091770;28;20377;-67
2022/08/25 01:44:18;;;;;;;16.45;13.80;;;;;;;;;;5074088;28;20100;-66
2022/08/25 01:46:44;;;;;;;19.63;14.48;;;;;;;;;;5091114;28;20434;-67
2022/08/25 01:49:10;;;;;;;21.08;13.90;;;;;;;;;;5092410;28;20032;-66
2022/08/25 01:51:46;;;;;;;17.98;15.07;;;;;;;;;;5092097;28;20393;-66
2022/08/25 01:54:12;;;;;;;16.90;13.88;;;;;;;;;;5073427;28;20077;-67
2022/08/25 01:56:38;;;;;;;15.02;13.43;;;;;;;;;;5092164;28;20392;-67
2022/08/25 01:59:04;;;;;;;18.35;13.90;;;;;;;;;;5091895;28;20040;-66
2022/08/25 02:01:31;;;;;;;16.42;14.40;;;;;;;;;;5091194;28;20040;-66
2022/08/25 02:03:57;;;;;;;16.77;14.43;;;;;;;;;;5091885;28;20048;-66
2022/08/25 02:06:31;;;;;;;16.60;13.30;;;;;;;;;;5091902;28;20032;-66
2022/08/25 02:09:03;;;;;;;16.65;13.10;;;;;;;;;;5073202;28;20400;-66
2022/08/25 02:11:30;;;;;;;15.55;13.88;;;;;;;;;;5074062;28;20055;-66
2022/08/25 02:13:57;;;;;;;14.55;11.95;;;;;;;;;;5057056;28;20094;-66
2022/08/25 02:16:27;;;;;;;19.27;13.68;;;;;;;;;;5073201;28;20048;-66
2022/08/25 02:18:53;;;;;;;15.68;13.63;;;;;;;;;;5073732;28;20048;-66
2022/08/25 02:21:19;;;;;;;14.63;12.30;;;;;;;;;;5073713;28;20060;-66
2022/08/25 02:23:45;;;;;;;15.30;12.93;;;;;;;;;;5090750;28;20123;-66
2022/08/25 02:26:15;;;;;;;15.40;12.63;;;;;;;;;;5074059;28;20036;-66
2022/08/25 02:28:41;;;;;;;15.88;12.98;;;;;;;;;;5076661;28;20044;-66
2022/08/25 02:31:07;;;;;;;14.65;12.00;;;;;;;;;;5094812;28;20047;-66
2022/08/25 02:33:33;;;;;;;13.63;12.23;;;;;;;;;;5077492;28;20173;-66
2022/08/25 02:36:00;;;;;;;17.48;12.65;;;;;;;;;;5076746;28;20136;-66
2022/08/25 02:38:27;;;;;;;16.08;11.38;;;;;;;;;;5095340;28;20079;-66
2022/08/25 02:40:54;;;;;;;13.15;10.68;;;;;;;;;;5095217;28;20044;-66
2022/08/25 02:43:20;;;;;;;15.68;11.05;;;;;;;;;;5076589;28;20059;-66
2022/08/25 02:45:46;;;;;;;14.40;10.55;;;;;;;;;;5095036;28;20040;-67
2022/08/25 02:48:12;;;;;;;12.85;10.35;;;;;;;;;;5077296;28;20043;-67
2022/08/25 02:50:38;;;;;;;14.63;10.68;;;;;;;;;;5076296;28;20059;-66
2022/08/25 02:53:04;;;;;;;12.73;10.20;;;;;;;;;;5095438;28;20058;-66
2022/08/25 02:55:31;;;;;;;11.75;8.70;;;;;;;;;;5076999;28;20093;-66
2022/08/25 02:57:57;;;;;;;11.63;9.80;;;;;;;;;;5076313;28;20102;-66
2022/08/25 03:00:23;;;;;;;12.07;10.70;;;;;;;;;;5095174;28;20094;-66
2022/08/25 03:02:49;;;;;;;12.05;10.10;;;;;;;;;;5077190;28;20139;-66
2022/08/25 03:05:15;;;;;;;14.40;10.10;;;;;;;;;;5094406;28;20589;-66
2022/08/25 03:07:42;;;;;;;16.98;9.65;;;;;;;;;;5095140;28;20036;-66
2022/08/25 03:10:10;;;;;;;14.10;9.38;;;;;;;;;;5076820;28;20048;-66
2022/08/25 03:12:36;;;;;;;13.38;8.80;;;;;;;;;;5075913;28;20122;-66
2022/08/25 03:15:03;;;;;;;14.10;8.80;;;;;;;;;;5076593;28;20121;-66
2022/08/25 03:17:29;;;;;;;14.70;9.07;;;;;;;;;;5094697;28;20448;-66
2022/08/25 03:19:55;;;;;;;10.90;8.43;;;;;;;;;;5075735;28;20052;-67
2022/08/25 03:22:21;;;;;;;12.13;8.25;;;;;;;;;;5095105;28;20051;-66
2022/08/25 03:24:47;;;;;;;10.43;7.80;;;;;;;;;;5076375;28;20040;-66
2022/08/25 03:27:14;;;;;;;12.93;8.20;;;;;;;;;;5094163;28;20401;-66
2022/08/25 03:29:42;;;;;;;9.50;7.18;;;;;;;;;;5076592;28;20047;-66
2022/08/25 03:32:08;;;;;;;9.23;7.05;;;;;;;;;;5093812;28;20114;-66
2022/08/25 03:34:34;;;;;;;9.55;7.93;;;;;;;;;;5076302;28;20052;-66
2022/08/25 03:37:01;;;;;;;11.45;8.27;;;;;;;;;;5076264;28;20084;-66
2022/08/25 03:39:27;;;;;;;10.65;7.53;;;;;;;;;;5074214;28;20044;-66
2022/08/25 03:41:53;;;;;;;14.40;7.60;;;;;;;;;;5075993;28;20048;-66
2022/08/25 03:44:20;;;;;;;10.77;7.45;;;;;;;;;;5094495;28;20036;-67
2022/08/25 03:46:47;;;;;;;8.38;6.90;;;;;;;;;;5092966;28;20051;-66
2022/08/25 03:49:15;;;;;;;11.98;7.70;;;;;;;;;;5076514;28;20040;-66
2022/08/25 03:51:46;;;;;;;10.98;7.50;;;;;;;;;;5059577;28;20051;-66
2022/08/25 03:54:13;;;;;;;9.43;7.70;;;;;;;;;;5093673;28;20074;-66
2022/08/25 03:56:39;;;;;;;11.20;7.47;;;;;;;;;;5094008;28;20044;-66
2022/08/25 03:59:08;;;;;;;10.52;6.70;;;;;;;;;;5075838;28;20097;-66
2022/08/25 04:01:35;;;;;;;11.25;7.25;;;;;;;;;;5093165;28;20044;-66
2022/08/25 04:04:01;;;;;;;8.60;6.60;;;;;;;;;;5058924;28;20048;-66
2022/08/25 04:06:27;;;;;;;10.40;6.78;;;;;;;;;;5093889;28;20113;-66
2022/08/25 04:08:53;;;;;;;14.57;7.38;;;;;;;;;;5092917;28;20111;-66
2022/08/25 04:11:21;;;;;;;11.90;6.88;;;;;;;;;;5075954;28;20093;-66
2022/08/25 04:13:48;;;;;;;15.73;7.93;;;;;;;;;;5075489;28;20485;-66
2022/08/25 04:16:15;;;;;;;11.50;7.40;;;;;;;;;;5093405;28;20055;-66
2022/08/25 04:18:41;;;;;;;10.55;7.07;;;;;;;;;;5093788;28;20115;-66
2022/08/25 04:21:08;;;;;;;11.85;6.72;;;;;;;;;;5075188;28;20056;-66
2022/08/25 04:23:35;;;;;;;10.68;7.47;;;;;;;;;;5092537;28;20115;-66
2022/08/25 04:26:02;;;;;;;9.70;7.90;;;;;;;;;;5058597;28;20082;-66
2022/08/25 04:28:28;;;;;;;11.20;7.50;;;;;;;;;;5074705;28;20465;-66
2022/08/25 04:30:54;;;;;;;10.43;7.50;;;;;;;;;;5093286;28;20039;-66
2022/08/25 04:33:20;;;;;;;10.45;7.45;;;;;;;;;;5075511;28;20039;-66
2022/08/25 04:35:47;;;;;;;9.77;7.47;;;;;;;;;;5092214;28;20040;-66
2022/08/25 04:38:13;;;;;;;11.80;7.15;;;;;;;;;;5075458;28;20074;-66
2022/08/25 04:40:39;;;;;;;11.48;7.60;;;;;;;;;;5075081;28;20044;-66
2022/08/25 04:43:06;;;;;;;11.50;7.47;;;;;;;;;;5074062;28;20097;-66
2022/08/25 04:45:35;;;;;;;11.68;8.20;;;;;;;;;;5075132;28;20036;-66
2022/08/25 04:48:01;;;;;;;10.55;7.97;;;;;;;;;;5074866;28;20047;-66
2022/08/25 04:50:28;;;;;;;11.43;6.45;;;;;;;;;;5092031;28;20043;-66
2022/08/25 04:52:54;;;;;;;10.50;6.22;;;;;;;;;;5092769;28;20065;-66
2022/08/25 04:55:21;;;;;;;12.07;6.57;;;;;;;;;;5075159;28;20447;-66
2022/08/25 04:57:47;;;;;;;11.13;6.65;;;;;;;;;;5091860;28;20040;-66
2022/08/25 05:00:13;;;;;;;11.05;7.18;;;;;;;;;;5075171;28;20036;-66
2022/08/25 05:02:39;;;;;;;10.75;6.68;;;;;;;;;;5092837;28;20036;-66
2022/08/25 05:05:06;;;;;;;12.35;6.75;;;;;;;;;;5073764;28;20063;-66
2022/08/25 05:07:32;;;;;;;8.48;6.13;;;;;;;;;;5092987;28;20036;-66
2022/08/25 05:09:58;;;;;;;9.30;6.47;;;;;;;;;;5092537;28;20477;-66
2022/08/25 05:12:24;;;;;;;9.82;5.97;;;;;;;;;;5073737;28;20044;-66
2022/08/25 05:14:53;;;;;;;8.57;5.95;;;;;;;;;;5092718;28;20040;-66
2022/08/25 05:17:19;;;;;;;10.90;6.80;;;;;;;;;;5092780;28;20542;-66
2022/08/25 05:19:45;;;;;;;10.40;6.55;;;;;;;;;;5091264;28;20090;-67
2022/08/25 05:22:11;;;;;;;9.18;6.65;;;;;;;;;;5074578;28;20052;-66
2022/08/25 05:24:37;;;;;;;11.40;6.40;;;;;;;;;;5074046;28;20514;-66
2022/08/25 05:27:04;;;;;;;8.75;6.10;;;;;;;;;;5074209;28;20036;-66
2022/08/25 05:29:30;;;;;;;10.43;5.53;;;;;;;;;;5092422;28;20449;-66
2022/08/25 05:31:56;;;;;;;8.95;6.35;;;;;;;;;;5091554;28;20114;-66
2022/08/25 05:34:22;;;;;;;9.38;6.55;;;;;;;;;;5074187;28;20128;-66
2022/08/25 05:36:48;;;;;;;9.77;6.05;;;;;;;;;;5074077;28;20123;-66
2022/08/25 05:39:14;;;;;;;10.07;5.75;;;;;;;;;;5073541;28;20044;-66
2022/08/25 05:41:40;;;;;;;8.60;5.93;;;;;;;;;;5092363;28;20446;-66
2022/08/25 05:44:06;;;;;;;11.32;6.28;;;;;;;;;;5092245;28;20075;-66
2022/08/25 05:46:32;;;;;;;9.90;5.85;;;;;;;;;;5091434;28;20040;-66
2022/08/25 05:48:58;;;;;;;7.40;5.50;;;;;;;;;;5074019;28;20040;-66
2022/08/25 05:51:25;;;;;;;12.73;6.55;;;;;;;;;;5073895;28;20115;-67
2022/08/25 05:53:51;;;;;;;10.85;5.72;;;;;;;;;;5091729;28;20044;-66
2022/08/25 05:56:18;;;;;;;8.68;6.13;;;;;;;;;;5092384;28;20040;-66
2022/08/25 05:58:44;;;;;;;10.80;6.57;;;;;;;;;;5091866;28;20051;-66
2022/08/25 06:04:03;;;;;;;11.20;6.00;;;;;;;;;;5074972;28;20078;-66
2022/08/25 06:06:29;;;;;;;7.60;5.40;;;;;;;;;;5071852;28;20372;-66
2022/08/25 06:08:55;;;;;;;8.55;5.45;;;;;;;;;;5037909;28;20037;-66
2022/08/25 06:11:22;;;;;;;9.52;4.95;;;;;;;;;;5072770;28;20040;-66
2022/08/25 06:13:48;;;;;;;9.75;6.00;;;;;;;;;;5055398;28;20048;-65
2022/08/25 06:16:25;;;;;;;10.48;5.45;;;;;;;;;;5088172;28;20044;-65
2022/08/25 06:18:52;;;;;;;8.30;5.78;;;;;;;;;;5072804;28;20385;-66
2022/08/25 06:21:18;;;;;;;7.82;5.55;;;;;;;;;;5092631;28;20458;-66
2022/08/25 06:23:48;;;;;;;8.85;5.20;;;;;;;;;;5092948;28;20051;-66
2022/08/25 06:26:14;;;;;;;8.02;4.65;;;;;;;;;;5094034;28;20040;-66
2022/08/25 06:28:40;;;;;;;9.43;5.53;;;;;;;;;;5092553;28;20428;-66
2022/08/25 06:31:06;;;;;;;9.57;4.93;;;;;;;;;;5075115;28;20121;-66
2022/08/25 06:33:32;;;;;;;8.18;4.68;;;;;;;;;;5059548;28;20036;-67
2022/08/25 06:35:58;;;;;;;9.52;5.03;;;;;;;;;;5072352;28;20046;-67
2022/08/25 06:38:24;;;;;;;10.27;5.32;;;;;;;;;;5073235;28;20044;-66
2022/08/25 06:40:51;;;;;;;9.25;5.10;;;;;;;;;;5038491;28;20044;-66
2022/08/25 06:43:18;;;;;;;10.45;5.00;;;;;;;;;;5054711;28;20123;-66
2022/08/25 06:45:44;;;;;;;7.47;4.38;;;;;;;;;;5054720;28;20079;-65
2022/08/25 06:48:10;;;;;;;7.38;4.20;;;;;;;;;;5068599;28;20055;-65
2022/08/25 06:50:40;;;;;;;8.93;5.10;;;;;;;;;;5070628;28;20300;-65
2022/08/25 06:53:06;;;;;;;7.32;4.13;;;;;;;;;;5055105;28;20386;-66
2022/08/25 06:55:34;;;;;;;12.23;4.50;;;;;;;;;;5054744;28;20106;-66
2022/08/25 06:58:00;;;;;;;9.18;4.40;;;;;;;;;;5054158;28;20079;-66
2022/08/25 07:00:26;;;;;;;11.90;5.05;;;;;;;;;;5075358;28;20071;-66
2022/08/25 07:02:52;;;;;;;12.27;4.32;;;;;;;;;;5082573;28;20115;-66
2022/08/25 07:05:18;;;;;;;9.18;3.85;;;;;;;;;;5050433;28;20461;-66
2022/08/25 07:07:45;;;;;;;8.88;4.15;;;;;;;;;;5090825;28;20107;-66
2022/08/25 07:10:12;;;;;;;6.72;4.07;;;;;;;;;;5092333;28;20083;-66
2022/08/25 07:12:39;;;;;;;7.50;4.28;;;;;;;;;;5072806;28;20040;-66
2022/08/25 07:15:05;;;;;;;10.07;4.63;;;;;;;;;;5073140;28;20079;-66
2022/08/25 07:17:31;;;;;;;10.95;4.22;;;;;;;;;;5052113;28;20099;-66
2022/08/25 07:19:57;;;;;;;9.73;4.10;;;;;;;;;;5060849;28;20101;-66
2022/08/25 07:22:23;;;;;;;7.30;3.72;;;;;;;;;;5091839;28;20130;-66
2022/08/25 07:24:49;;;;;;;8.68;4.00;;;;;;;;;;5091323;28;20051;-66
2022/08/25 07:27:16;;;;;;;10.85;4.65;;;;;;;;;;5066426;28;20043;-66
2022/08/25 07:29:42;;;;;;;7.82;3.70;;;;;;;;;;5084749;28;20055;-67
2022/08/25 07:32:08;;;;;;;10.02;4.20;;;;;;;;;;5073541;28;20127;-67
2022/08/25 07:37:19;;;;;;;6.95;3.58;;;;;;;;;;5073501;28;20048;-67
2022/08/25 07:39:45;;;;;;;7.57;3.97;;;;;;;;;;5072758;28;20051;-66
2022/08/25 07:42:12;;;;;;;8.02;4.10;;;;;;;;;;5092097;28;20051;-67
2022/08/25 07:44:38;;;;;;;8.25;4.15;;;;;;;;;;5073002;28;20051;-67
2022/08/25 07:47:04;;;;;;;8.23;4.05;;;;;;;;;;5045268;28;20048;-67
2022/08/25 07:49:31;;;;;;;7.15;3.97;;;;;;;;;;5071646;28;20040;-67
2022/08/25 07:51:57;;;;;;;7.55;3.78;;;;;;;;;;5081896;28;20044;-67
2022/08/25 07:54:26;;;;;;;7.55;4.18;;;;;;;;;;5065014;28;20052;-66
2022/08/25 07:56:52;;;;;;;8.35;3.88;;;;;;;;;;5059181;28;20048;-65
2022/08/25 07:59:18;;;;;;;8.02;3.80;;;;;;;;;;5093558;28;20035;-65
2022/08/25 08:01:44;;;;;;;8.55;5.13;;;;;;;;;;5072824;28;20105;-65
2022/08/25 08:04:10;;;;;;;7.72;3.72;;;;;;;;;;5056234;28;20036;-64
2022/08/25 08:06:36;;;;;;;7.10;3.70;;;;;;;;;;5077577;28;20043;-67
2022/08/25 08:09:03;;;;;;;9.73;3.75;;;;;;;;;;5064774;28;20081;-67
2022/08/25 08:11:32;;;;;;;7.05;3.85;;;;;;;;;;5093658;28;20063;-67
2022/08/25 08:13:59;;;;;;;9.20;4.00;;;;;;;;;;5074703;28;20442;-67
2022/08/25 08:16:25;;;;;;;7.68;3.95;;;;;;;;;;5093694;28;20405;-67
2022/08/25 08:18:52;;;;;;;9.30;4.18;;;;;;;;;;5075530;28;20036;-67
2022/08/25 08:21:29;;;;;;;9.18;3.88;;;;;;;;;;5074749;28;20540;-67
2022/08/25 08:23:56;;;;;;;8.80;3.88;;;;;;;;;;5075336;28;20130;-67
2022/08/25 08:26:22;;;;;;;7.53;3.53;;;;;;;;;;5058575;28;20044;-67
2022/08/25 08:28:50;;;;;;;7.30;3.67;;;;;;;;;;5074422;28;20476;-67
2022/08/25 08:31:18;;;;;;;8.60;4.10;;;;;;;;;;5093680;28;20538;-67
2022/08/25 08:33:45;;;;;;;10.52;3.42;;;;;;;;;;5074917;28;20048;-67
2022/08/25 08:36:12;;;;;;;7.22;3.38;;;;;;;;;;5092796;28;20079;-67
2022/08/25 08:38:38;;;;;;;8.80;3.70;;;;;;;;;;5075116;28;20043;-67
2022/08/25 08:44:06;;;;;;;7.47;3.47;;;;;;;;;;5092438;28;20059;-67
2022/08/25 08:46:40;;;;;;;8.52;4.20;;;;;;;;;;5093075;28;20079;-68
2022/08/25 08:49:10;;;;;;;7.70;3.30;;;;;;;;;;5074467;28;20047;-67
2022/08/25 08:51:44;;;;;;;9.80;3.70;;;;;;;;;;5074877;28;20048;-67
2022/08/25 08:54:19;;;;;;;6.32;3.00;;;;;;;;;;5093336;28;20519;-67
2022/08/25 08:56:49;;;;;;;6.50;3.10;;;;;;;;;;5073592;28;20097;-68
2022/08/25 08:59:16;;;;;;;6.45;3.53;;;;;;;;;;5092920;28;20459;-68
2022/08/25 09:01:46;;;;;;;6.43;3.75;;;;;;;;;;5092996;28;20101;-68
2022/08/25 09:04:12;;;;;;;9.25;3.72;;;;;;;;;;5074212;28;20032;-68
2022/08/25 09:06:42;;;;;;;7.85;3.58;;;26.20;99.90;;;;;;5092720;28;20558;-68
2022/08/25 09:09:13;;;;;;;7.38;3.40;;;26.10;99.90;;;;;;5092991;28;20047;-67
2022/08/25 09:12:30;;;;;;;6.72;3.60;;;26.20;99.90;;;;;;5073689;28;20089;-68
2022/08/25 09:16:53;;;;;;;9.05;3.88;;;26.10;99.90;;;;;;5041723;28;20252;-68
2022/08/25 09:18:24;;;;;;;5.88;3.38;;;26.30;99.90;;;;;;5073868;28;20078;-68
2022/08/25 09:21:07;;;;;;;6.47;3.47;;;26.40;99.90;;;;;;5074189;28;20048;-68
2022/08/25 09:23:33;;;;;;;5.37;3.40;;;;;;;;;;5092691;28;20051;-68
2022/08/25 09:25:59;;;;;;;9.73;3.28;;;;;;;;;;5091690;28;20359;-68
2022/08/25 09:28:29;;;;;;;6.13;2.78;;;26.70;99.90;;;;;;5057559;28;20079;-68
2022/08/25 09:31:03;;;;;;;7.22;3.03;;;;;;;;;;5073626;28;20472;-68
2022/08/25 09:33:31;;;;;;;9.60;3.47;;;;;;;;;;5074456;28;20484;-68
2022/08/25 09:35:57;;;;;;;5.03;3.03;;;;;;;;;;5074304;28;20083;-68
2022/08/25 09:38:24;;;;;;;10.70;4.05;;;;;;;;;;5072678;28;20044;-68
2022/08/25 09:40:53;;;;;;;6.60;3.17;;;;;;;;;;5074336;28;20119;-68
2022/08/25 09:43:30;;;;;;;8.18;2.92;;;;;;;;;;5073886;28;20054;-68
2022/08/25 09:46:02;;;;;;;9.15;2.97;;;;;;;;;;5052784;28;20044;-66
2022/08/25 09:48:36;;;;;;;6.03;2.58;;;;;;;;;;5076192;28;20036;-67
2022/08/25 09:51:18;;;;;;;5.97;3.10;;;27.30;99.90;;;;;;5063931;28;20063;-69
2022/08/25 09:53:53;;;;;;;7.03;2.88;;;;;;;;;;5079424;28;20430;-65
2022/08/25 09:56:22;;;;;;;6.07;3.00;;;;;;;;;;5092167;28;20039;-65
2022/08/25 09:58:48;;;;;;;5.70;2.88;;;;;;;;;;5092391;28;20039;-66
2022/08/25 10:01:17;;;;;;;4.60;2.60;;;;;;;;;;5073412;28;20036;-65
2022/08/25 10:03:56;;;;;;;5.50;2.55;;;27.60;99.90;;;;;;5090765;28;20508;-66
2022/08/25 10:06:23;;;;;;;6.40;2.78;;;;;;;;;;5073136;28;20040;-64
2022/08/25 10:08:50;;;;;;;7.53;2.90;;;;;;;;;;5068004;28;20479;-65
2022/08/25 10:11:36;;;;;;;6.35;3.08;;;;;;;;;;5092476;28;20044;-63
2022/08/25 10:14:07;;;;;;;8.80;3.00;;;;;;;;;;5091201;28;20036;-63
2022/08/25 10:16:34;;;;;;;7.50;3.20;;;;;;;;;;5054024;28;20051;-63
2022/08/25 10:19:01;;;;;;;6.95;2.80;;;;;;;;;;5071019;28;20071;-63
2022/08/25 10:22:14;;;;;;;8.88;3.08;;;;;;;;;;5063984;28;20045;-62
2022/08/25 10:24:40;;;;;;;7.10;2.83;;;;;;;;;;5054778;28;20040;-63
2022/08/25 10:27:06;;;;;;;7.18;2.70;;;;;;;;;;5048892;28;20054;-63
2022/08/25 10:29:50;;;;;;;4.72;2.53;;;28.10;98.30;;;;;;5071176;28;20040;-64
2022/08/25 10:32:19;;;;;;;;;;;28.20;96.10;;;;;;5069931;28;20053;-64
2022/08/25 10:34:46;;;;;;;5.40;2.60;;;;;;;;;;5057066;28;19955;-64
2022/08/25 10:37:12;;;;;;;4.88;2.75;;;;;;;;;;5071749;28;20049;-64
2022/08/25 10:39:44;;;;;;;5.45;2.92;;;;;;;;;;5067626;28;20033;-64
2022/08/25 10:42:10;;;;;;;6.70;3.38;;;;;;;;;;5068802;28;20033;-64
2022/08/25 10:48:12;;;;;;;7.65;2.50;;;28.40;93.90;;;;;;5051153;28;20047;-64
2022/08/25 10:51:06;;;;;;;5.22;2.60;;;28.40;98.40;;;;;;5056408;28;20120;-64
2022/08/25 10:53:53;;;;;;;5.68;2.78;;;28.50;95.80;;;;;;5066745;28;20481;-64
2022/08/25 10:56:26;;;;;;;4.75;2.75;;;28.60;98.00;;;;;;5071392;28;20099;-64
2022/08/25 10:59:18;;;;;;;6.00;3.05;;;28.50;94.00;;;;;;5073654;28;20044;-64
2022/08/25 11:02:23;;;;;;;5.90;2.67;;;28.70;96.60;;;;;;5072811;28;20106;-64
2022/08/25 11:05:11;;;;;;;6.93;3.00;;;28.70;97.50;;;;;;5069617;28;20033;-64
2022/08/25 11:07:40;;;;;;;5.53;2.83;;;;;;;;;;5058433;28;20037;-64
2022/08/25 11:10:12;;;;;;;5.65;2.90;;;28.90;94.70;;;;;;5055879;28;20036;-65
2022/08/25 11:12:46;;;;;;;4.28;2.40;;;;;;;;;;5053493;28;20041;-64
2022/08/25 11:15:12;;;;;;;4.88;2.50;;;;;;;;;;5055391;28;20044;-65
2022/08/25 11:17:41;;;;;;;5.30;2.60;;;;;;;;;;5053849;28;20064;-65
2022/08/25 11:20:13;;;;;;;6.15;2.85;;;29.00;96.00;;;;;;5079697;28;20052;-65
2022/08/25 11:22:47;;;;;;;7.47;3.28;;;29.30;94.00;;;;;;5074799;28;20501;-64
2022/08/25 11:25:28;;;;;;;5.70;2.50;;;29.50;93.30;;;;;;5092874;28;20044;-64
2022/08/25 11:28:11;;;;;;;7.28;2.63;;;29.00;93.10;;;;;;5041882;28;20032;-64
2022/08/25 11:30:38;;;;;;;8.75;3.42;;;28.40;94.90;;;;;;5085858;28;20078;-65
2022/08/25 11:33:04;;;;;;;7.07;3.13;;;29.40;93.50;;;;;;5075943;28;20089;-65
2022/08/25 11:35:41;;;;;;;5.55;2.75;;;29.80;93.00;;;;;;5092736;28;20059;-65
2022/08/25 11:38:28;;;;;;;4.82;2.50;;;29.30;67.80;;;;;;5081177;28;20452;-65
2022/08/25 11:41:21;;;;;;;6.13;2.63;;;29.60;92.70;;;;;;5058555;28;20048;-65
2022/08/25 11:44:09;;;;;;;5.38;2.88;;;29.30;92.80;;;;;;5090133;28;20047;-65
2022/08/25 11:46:40;;;;;;;9.57;3.10;;;29.20;92.70;;;;;;5075342;28;20096;-65
2022/08/25 11:49:36;;;;;;;5.30;2.20;;;29.30;66.20;;;;;;5059833;28;20504;-65
2022/08/25 11:52:04;;;;;;;4.95;2.47;;;29.30;65.80;;;;;;5074136;28;20466;-65
2022/08/25 11:54:42;;;;;;;6.05;2.60;;;29.00;91.80;;;;;;5074617;28;20496;-66
2022/08/25 11:57:12;;;;;;;4.80;2.55;;;28.90;92.80;;;;;;5039969;28;20124;-66
2022/08/25 11:59:52;;;;;;;6.13;2.38;;;29.60;93.50;;;;;;5078576;28;20032;-66
2022/08/25 12:02:36;;;;;;;5.53;2.53;;;29.50;64.20;;;;;;5090238;28;20484;-66
2022/08/25 12:05:22;;;;;;;5.50;2.80;;;30.00;94.00;;;;;;5061091;28;20501;-65
2022/08/25 12:11:07;;;;;;;5.97;2.50;;;29.50;63.90;;;;;;5089673;28;20047;-64
2022/08/25 12:13:50;;;;;;;4.95;2.58;;;29.50;63.50;;;;;;5068573;28;20497;-66
2022/08/25 12:16:34;;;;;;;8.57;3.30;;;29.50;64.10;;;;;;5076189;28;20539;-65
2022/08/25 12:19:33;;;;;;;9.95;3.63;;;29.50;63.90;;;;;;5088232;28;20489;-65
2022/08/25 12:22:02;;;;;;;5.20;2.65;;;29.60;63.00;;;;;;5061672;28;20382;-65
2022/08/25 12:24:43;;;;;;;7.43;3.00;;;29.50;63.60;;;;;;5093512;28;20036;-65
2022/08/25 12:27:14;;;;;;;8.63;2.30;;;;;;;;;;5083949;28;20040;-65
2022/08/25 12:29:46;;;;;;;5.80;3.10;;;;;;;;;;5072657;28;20077;-65
2022/08/25 12:32:32;;;;;;;5.90;2.47;;;;;;;;;;5066874;28;20039;-65
2022/08/25 12:35:16;;;;;;;4.90;2.50;;;30.00;58.90;;;;;;5089657;28;20047;-65
2022/08/25 12:38:06;;;;;;;14.45;2.67;;;30.00;59.40;;;;;;5072208;28;20048;-65
2022/08/25 12:40:37;;;;;;;5.05;2.30;;;30.10;59.40;;;;;;5069887;28;20044;-65
2022/08/25 12:43:07;;;;;;;6.28;2.85;;;30.60;92.20;;;;;;5065032;28;20035;-65
2022/08/25 12:45:44;;;;;;;5.90;2.70;;;30.00;59.90;;;;;;5073939;28;20075;-65
2022/08/25 12:48:28;;;;;;;5.22;2.00;;;30.10;60.50;;;;;;5071020;28;20079;-65
2022/08/25 12:51:04;;;;;;;5.85;2.58;;;30.20;65.40;;;;;;5088812;28;20165;-65
2022/08/25 12:53:35;;;;;;;7.43;2.70;;;30.20;60.30;;;;;;5070434;28;20036;-65
2022/08/25 12:56:07;;;;;;;4.82;2.65;;;;;;;;;;5079283;28;20048;-65
2022/08/25 12:58:49;;;;;;;5.40;2.50;;;;;;;;;;5089788;28;20496;-66
2022/08/25 13:01:21;;;;;;;6.03;2.45;;;;;;;;;;5067913;28;20098;-65
2022/08/25 13:04:06;;;;;;;5.95;2.95;;;;;;;;;;5050871;28;20044;-66
2022/08/25 13:06:50;;;;;;;6.65;2.33;;;;;;;;;;5056271;28;20049;-66
2022/08/25 13:09:35;;;;;;;7.47;2.60;;;;;;;;;;5058069;28;20109;-65
2022/08/25 13:12:25;;;;;;;6.53;2.70;;;30.50;81.70;;;;;;5059203;28;20499;-65
2022/08/25 13:14:55;;;;;;;7.53;2.33;;;30.30;84.10;;;;;;5052025;28;20102;-65
2022/08/25 13:17:49;;;;;;;6.55;2.40;;;30.20;84.00;;;;;;5082186;28;20040;-65
2022/08/25 13:20:33;;;;;;;6.13;2.50;;;30.30;67.80;;;;;;5089194;28;20188;-65
2022/08/25 13:22:59;;;;;;;5.38;2.90;;;30.20;57.20;;;;;;5071246;28;20087;-65
2022/08/25 13:25:27;;;;;;;8.02;2.58;;;30.30;55.70;;;;;;5089992;28;20040;-65
2022/08/25 13:27:58;;;;;;;7.68;2.70;;;30.30;56.30;;;;;;5075572;28;20075;-65
2022/08/25 13:30:31;;;;;;;6.47;3.17;;;30.40;81.20;;;;;;5068300;28;20047;-65
2022/08/25 13:32:58;;;;;;;6.70;2.40;;;30.30;78.90;;;;;;5051710;28;20054;-64
2022/08/25 13:35:31;;;;;;;5.97;2.80;;;30.80;82.50;;;;;;5069568;28;20040;-64
2022/08/25 13:38:29;;;;;;;8.10;3.03;;;;;;;;;;5050957;28;20544;-65
2022/08/25 13:41:02;;;;;;;5.55;2.30;;;32.50;57.00;;;;;;5026199;28;20167;-62
2022/08/25 13:43:31;;;;;;;5.47;2.75;;;;;;;;;;5052371;28;20230;-62
2022/08/25 13:45:58;;;;;;;6.93;2.75;;;;;;;;;;5069752;28;20043;-62
2022/08/25 13:48:39;;;;;;;5.18;2.10;;;30.70;88.50;;;;;;5053461;28;20040;-62
2022/08/25 13:51:16;;;;;;;4.05;2.17;;;;;;;;;;5070306;28;20330;-62
2022/08/25 13:53:48;;;;;;;6.10;2.42;;;30.90;71.90;;;;;;5071229;28;20123;-62
2022/08/25 13:56:26;;;;;;;5.13;2.30;;;31.30;76.10;;;;;;5072436;28;20445;-62
2022/08/25 13:58:54;;;;;;;5.70;2.40;;;31.30;76.30;;;;;;5081168;28;20040;-62
2022/08/25 14:01:24;;;;;;;5.60;2.70;;;31.00;77.80;;;;;;5071020;28;20640;-62
2022/08/25 14:03:52;;;;;;;6.88;2.83;;;31.00;53.60;;;;;;5067278;28;20040;-62
2022/08/25 14:06:25;;;;;;;5.25;2.15;;;30.80;84.30;;;;;;5057993;28;21370;-62
2022/08/25 14:08:57;;;;;;;5.70;2.17;;;31.30;78.80;;;;;;5069922;28;20052;-62
2022/08/25 14:11:46;;;;;;;4.50;2.15;;;31.10;52.60;;;;;;5084927;28;20043;-64
2022/08/25 14:14:22;;;;;;;8.00;2.50;;;31.10;52.60;;;;;;5058335;28;20378;-63
2022/08/25 14:16:52;;;;;;;4.10;2.13;;;31.00;52.50;;;;;;5066979;28;20105;-65
2022/08/25 14:19:21;;;;;;;4.78;2.47;;;31.50;62.80;;;;;;5038958;28;20493;-63
2022/08/25 14:21:48;;;;;;;4.57;2.30;;;31.00;73.90;;;;;;5054550;28;20058;-65
2022/08/25 14:24:19;;;;;;;4.28;2.20;;;31.30;71.80;;;;;;5090421;28;20052;-65
2022/08/25 14:26:45;;;;;;;6.95;2.40;;;31.30;76.30;;;;;;5058881;28;20040;-63
2022/08/25 14:29:12;;;;;;;4.88;2.40;;;31.40;73.80;;;;;;5056781;28;20048;-64
2022/08/25 14:31:42;;;;;;;5.28;2.63;;;31.40;52.40;;;;;;5056532;28;20098;-65
2022/08/25 14:34:13;;;;;;;6.45;2.80;;;31.60;75.00;;;;;;5069709;28;20048;-64
2022/08/25 14:36:41;;;;;;;5.85;2.42;;;31.40;52.70;;;;;;5089615;28;20495;-64
2022/08/25 14:39:08;;;;;;;6.18;2.28;;;31.40;52.30;;;;;;5049793;28;20048;-64